Time;durP1;ratioP1;P1;durP2;ratioP2;P2;SDS_P1;SDS_P2;PMS_P1;PMS_P2;Temp;Humidity;BMP_temperature;BMP_pressure;BME280_temperature;BME280_humidity;BME280_pressure;Samples;Min_cycle;Max_cycle;Signal;HPM_P1;HPM_P2
2020/12/31 00:01:26;;;;;;;7.10;1.07;;;;;;;5.43;100.00;99607.00;4917376;28;20191;-81
2020/12/31 00:03:54;;;;;;;2.83;0.40;;;;;;;5.50;100.00;99603.69;4917471;28;20447;-81
2020/12/31 00:06:20;;;;;;;2.47;0.40;;;;;;;5.67;100.00;99603.31;4927963;28;20998;-82
2020/12/31 00:08:46;;;;;;;1.50;0.30;;;;;;;5.73;100.00;99598.50;4907566;29;20431;-81
2020/12/31 00:11:12;;;;;;;1.67;0.27;;;;;;;5.68;100.00;99594.22;4905606;28;20314;-81
2020/12/31 00:13:38;;;;;;;2.73;0.60;;;;;;;5.60;100.00;99599.72;4922919;28;20191;-81
2020/12/31 00:16:05;;;;;;;2.87;0.90;;;;;;;5.42;100.00;99602.75;4910045;28;20484;-82
2020/12/31 00:18:30;;;;;;;1.80;0.53;;;;;;;5.47;100.00;99604.41;4906642;28;20486;-80
2020/12/31 00:20:56;;;;;;;2.00;0.50;;;;;;;5.49;100.00;99610.97;4914579;29;20499;-81
2020/12/31 00:23:21;;;;;;;5.07;0.80;;;;;;;5.74;100.00;99602.72;4927203;28;20609;-81
2020/12/31 00:25:56;;;;;;;2.67;0.80;;;;;;;5.67;100.00;99605.25;4932412;28;20199;-79
2020/12/31 00:28:22;;;;;;;1.87;0.50;;;;;;;5.69;100.00;99608.34;4931633;28;20294;-81
2020/12/31 00:30:48;;;;;;;4.20;0.53;;;;;;;5.81;100.00;99610.88;4953957;28;20487;-81
2020/12/31 00:33:20;;;;;;;2.90;0.90;;;;;;;5.80;100.00;99610.13;5049036;28;20423;-81
2020/12/31 00:35:52;;;;;;;2.70;0.40;;;;;;;5.52;100.00;99606.06;5059459;28;20464;-80
2020/12/31 00:38:17;;;;;;;1.50;0.30;;;;;;;5.62;100.00;99610.84;5012721;28;20528;-80
2020/12/31 00:40:43;;;;;;;1.97;0.40;;;;;;;5.83;100.00;99611.31;5055984;28;20448;-80
2020/12/31 00:43:08;;;;;;;1.97;0.40;;;;;;;5.84;100.00;99612.91;5009755;28;20264;-81
2020/12/31 00:45:34;;;;;;;1.73;0.50;;;;;;;5.70;100.00;99618.66;5046798;28;20196;-81
2020/12/31 00:47:59;;;;;;;1.80;0.50;;;;;;;5.64;100.00;99620.06;5062189;28;20205;-80
2020/12/31 00:50:25;;;;;;;1.70;0.33;;;;;;;5.81;100.00;99614.34;5078111;28;20701;-79
2020/12/31 00:52:51;;;;;;;2.70;0.90;;;;;;;5.85;100.00;99623.22;5077501;28;20188;-81
2020/12/31 00:55:17;;;;;;;2.13;0.53;;;;;;;5.77;100.00;99624.16;5058580;28;20185;-81
2020/12/31 00:57:44;;;;;;;1.93;0.40;;;;;;;5.96;100.00;99626.16;5057291;28;21323;-81
2020/12/31 01:00:11;;;;;;;3.33;0.80;;;;;;;6.02;100.00;99630.09;5073212;28;20436;-82
2020/12/31 01:02:54;;;;;;;3.10;0.70;;;;;;;5.99;100.00;99628.88;5076631;28;20180;-81
2020/12/31 01:05:19;;;;;;;1.50;0.27;;;;;;;5.70;100.00;99625.91;5011540;28;20438;-81
2020/12/31 01:07:45;;;;;;;7.10;0.97;;;;;;;5.73;100.00;99627.91;5057310;28;20726;-81
2020/12/31 01:10:11;;;;;;;1.73;0.40;;;;;;;5.71;100.00;99632.81;5078749;28;20184;-81
2020/12/31 01:12:37;;;;;;;1.87;0.40;;;;;;;5.70;100.00;99634.69;5008637;28;20208;-81
2020/12/31 01:15:06;;;;;;;2.83;0.77;;;;;;;5.73;100.00;99627.91;5063419;28;20191;-81
2020/12/31 01:17:31;;;;;;;1.20;0.20;;;;;;;5.62;100.00;99632.19;5054490;28;21058;-80
2020/12/31 01:19:57;;;;;;;3.10;0.30;;;;;;;5.76;100.00;99625.28;5062418;28;20440;-81
2020/12/31 01:22:22;;;;;;;2.13;0.53;;;;;;;5.76;100.00;99629.84;5078511;28;20192;-81
2020/12/31 01:24:51;;;;;;;1.80;0.50;;;;;;;5.64;100.00;99632.63;5066014;28;20304;-81
2020/12/31 01:27:17;;;;;;;1.87;0.33;;;;;;;5.70;100.00;99642.72;5063490;28;20216;-81
2020/12/31 01:29:42;;;;;;;2.23;0.60;;;;;;;5.46;100.00;99635.66;5081470;28;20443;-81
2020/12/31 01:32:08;;;;;;;3.50;0.83;;;;;;;5.74;100.00;99632.88;5062415;28;20471;-80
2020/12/31 01:34:34;;;;;;;2.17;0.63;;;;;;;5.71;100.00;99644.25;5084184;28;20172;-81
2020/12/31 01:37:00;;;;;;;1.97;0.63;;;;;;;5.64;100.00;99635.28;5076324;28;20708;-80
2020/12/31 01:39:25;;;;;;;1.80;0.60;;;;;;;5.66;100.00;99638.41;5017104;28;20449;-80
2020/12/31 01:41:51;;;;;;;1.50;0.30;;;;;;;5.75;100.00;99639.00;5020874;28;20190;-81
2020/12/31 01:44:17;;;;;;;1.30;0.10;;;;;;;5.64;100.00;99635.28;5027367;28;20189;-80
2020/12/31 01:46:45;;;;;;;2.53;0.93;;;;;;;5.37;100.00;99644.97;5015397;28;20218;-81
2020/12/31 01:49:13;;;;;;;1.40;0.30;;;;;;;5.40;100.00;99647.72;5083242;28;20475;-81
2020/12/31 01:51:40;;;;;;;1.60;0.37;;;;;;;5.56;100.00;99634.34;5014663;28;20467;-81
2020/12/31 01:54:07;;;;;;;2.73;0.43;;;;;;;5.47;100.00;99647.13;5076684;28;20444;-81
2020/12/31 01:56:34;;;;;;;1.90;0.50;;;;;;;5.53;100.00;99651.84;5072073;28;20870;-81
2020/12/31 01:59:00;;;;;;;2.17;0.43;;;;;;;5.45;100.00;99650.13;5052227;28;20795;-79
2020/12/31 02:01:27;;;;;;;2.70;0.57;;;;;;;5.37;100.00;99651.09;5078420;28;20442;-81
2020/12/31 02:03:54;;;;;;;2.53;0.50;;;;;;;5.57;100.00;99646.59;5080451;28;20189;-81
2020/12/31 02:06:21;;;;;;;1.40;0.30;;;;;;;5.51;100.00;99639.97;5011728;28;20464;-81
2020/12/31 02:08:47;;;;;;;2.13;0.50;;;;;;;5.62;100.00;99654.34;5031707;28;20446;-81
2020/12/31 02:11:14;;;;;;;1.93;0.67;;;;;;;5.46;100.00;99649.00;5083472;28;21075;-81
2020/12/31 02:13:44;;;;;;;1.80;0.30;;;;;;;5.36;100.00;99644.19;5093794;28;20490;-81
2020/12/31 02:16:21;;;;;;;2.87;0.60;;;;;;;5.35;100.00;99650.66;5064063;28;21008;-81
2020/12/31 02:18:58;;;;;;;1.50;0.30;;;;;;;5.42;100.00;99658.03;5083816;28;20446;-82
2020/12/31 02:21:25;;;;;;;1.90;0.50;;;;;;;5.41;100.00;99651.16;5022021;28;20439;-81
2020/12/31 02:23:51;;;;;;;3.77;0.50;;;;;;;5.50;100.00;99660.53;5007761;28;20432;-82
2020/12/31 02:26:16;;;;;;;2.07;0.47;;;;;;;5.47;100.00;99661.25;5012506;28;20530;-82
2020/12/31 02:28:42;;;;;;;2.30;0.40;;;;;;;5.37;100.00;99653.75;5078254;28;20635;-81
2020/12/31 02:31:08;;;;;;;2.77;0.70;;;;;;;5.33;100.00;99660.13;5056407;28;20215;-82
2020/12/31 02:33:33;;;;;;;1.97;0.47;;;;;;;5.21;100.00;99671.63;5081084;28;20189;-81
2020/12/31 02:35:59;;;;;;;1.43;0.17;;;;;;;5.18;100.00;99671.56;5016081;28;20184;-81
2020/12/31 02:38:24;;;;;;;2.30;0.57;;;;;;;5.18;100.00;99663.56;5028772;28;20262;-81
2020/12/31 02:40:50;;;;;;;2.10;0.70;;;;;;;5.14;100.00;99668.81;5062083;28;20185;-80
2020/12/31 02:43:15;;;;;;;2.37;0.70;;;;;;;5.14;100.00;99668.81;5063988;28;20202;-78
2020/12/31 02:45:41;;;;;;;1.43;0.37;;;;;;;5.04;100.00;99671.97;5079638;28;20191;-79
2020/12/31 02:48:07;;;;;;;2.20;0.40;;;;;;;4.94;100.00;99664.47;5081791;28;20205;-79
2020/12/31 02:50:32;;;;;;;2.37;0.40;;;;;;;5.16;100.00;99679.13;5082950;28;20281;-79
2020/12/31 02:52:58;;;;;;;2.80;1.00;;;;;;;5.17;100.00;99678.78;5080402;28;20197;-80
2020/12/31 02:55:23;;;;;;;3.00;0.70;;;;;;;5.30;100.00;99680.25;5011284;28;20215;-79
2020/12/31 02:57:49;;;;;;;1.50;0.20;;;;;;;5.22;100.00;99680.44;5060484;28;20201;-79
2020/12/31 03:00:14;;;;;;;2.03;0.53;;;;;;;5.41;100.00;99665.28;5068527;28;20194;-80
2020/12/31 03:02:40;;;;;;;2.07;0.20;;;;;;;5.53;100.00;99671.66;5076652;28;20196;-79
2020/12/31 03:05:05;;;;;;;3.00;0.60;;;;;;;5.59;100.00;99680.97;5016924;28;20203;-79
2020/12/31 03:07:31;;;;;;;1.80;0.43;;;;;;;5.17;100.00;99678.78;5078311;28;20207;-79
2020/12/31 03:09:56;;;;;;;1.10;0.10;;;;;;;5.09;100.00;99669.03;5062961;28;20525;-79
2020/12/31 03:12:22;;;;;;;2.20;0.30;;;;;;;5.09;100.00;99668.28;5008370;28;20205;-79
2020/12/31 03:14:47;;;;;;;4.50;1.20;;;;;;;5.09;100.00;99669.03;5012498;28;20201;-78
2020/12/31 03:17:13;;;;;;;3.23;0.53;;;;;;;5.25;100.00;99669.06;5068679;28;20205;-80
2020/12/31 03:19:38;;;;;;;3.00;1.13;;;;;;;5.15;100.00;99662.34;5083237;28;20181;-79
2020/12/31 03:22:03;;;;;;;2.60;0.80;;;;;;;5.21;100.00;99660.97;5082876;28;20181;-79
2020/12/31 03:24:29;;;;;;;3.53;0.60;;;;;;;5.05;100.00;99665.50;5015725;28;20181;-79
2020/12/31 03:26:54;;;;;;;2.87;0.70;;;;;;;5.20;100.00;99664.78;5016827;28;20211;-79
2020/12/31 03:29:20;;;;;;;2.07;0.60;;;;;;;5.25;100.00;99661.84;5014168;28;20192;-79
2020/12/31 03:31:45;;;;;;;3.00;0.50;;;;;;;5.27;100.00;99653.47;5084361;28;20587;-79
2020/12/31 03:34:11;;;;;;;2.53;0.30;;;;;;;5.22;100.00;99659.09;5079389;28;20246;-80
2020/12/31 03:36:36;;;;;;;2.27;0.80;;;;;;;5.12;100.00;99663.03;5011157;28;20583;-81
2020/12/31 03:39:02;;;;;;;1.87;0.60;;;;;;;5.31;100.00;99662.34;5060544;28;20185;-81
2020/12/31 03:41:27;;;;;;;2.27;0.60;;;;;;;5.16;100.00;99671.91;5058546;28;20260;-80
2020/12/31 03:43:53;;;;;;;2.80;0.87;;;;;;;5.09;100.00;99671.72;5024228;28;20245;-81
2020/12/31 03:46:18;;;;;;;2.10;0.70;;;;;;;5.17;100.00;99665.44;4996052;28;20218;-81
2020/12/31 03:48:44;;;;;;;2.23;0.50;;;;;;;5.08;100.00;99675.50;5059547;28;20634;-80
2020/12/31 03:51:09;;;;;;;2.20;0.60;;;;;;;4.95;100.00;99668.69;5076164;28;20212;-81
2020/12/31 03:53:35;;;;;;;3.70;0.60;;;;;;;5.09;100.00;99662.94;5011341;28;20189;-81
2020/12/31 03:56:00;;;;;;;6.20;1.00;;;;;;;5.16;100.00;99663.91;5078609;28;20173;-81
2020/12/31 03:58:26;;;;;;;1.60;0.30;;;;;;;5.08;100.00;99656.81;5074188;28;20209;-80
2020/12/31 04:00:51;;;;;;;2.23;0.70;;;;;;;5.04;100.00;99661.28;5077917;28;20236;-81
2020/12/31 04:03:17;;;;;;;3.33;1.07;;;;;;;4.95;100.00;99666.03;5080596;28;20260;-81
2020/12/31 04:05:43;;;;;;;5.53;0.57;;;;;;;5.17;100.00;99659.31;5050253;28;20196;-81
2020/12/31 04:08:08;;;;;;;2.57;0.50;;;;;;;4.96;100.00;99664.88;5064325;28;20200;-80
2020/12/31 04:10:34;;;;;;;2.83;0.80;;;;;;;5.02;100.00;99662.75;5078562;28;20226;-81
2020/12/31 04:12:59;;;;;;;2.37;0.67;;;;;;;5.04;100.00;99657.84;5077327;28;20192;-81
2020/12/31 04:15:25;;;;;;;2.23;0.60;;;;;;;5.21;100.00;99652.97;5077202;28;20696;-80
2020/12/31 04:17:50;;;;;;;2.10;0.50;;;;;;;5.01;100.00;99650.53;5059939;28;20202;-80
2020/12/31 04:20:16;;;;;;;1.80;0.50;;;;;;;4.84;100.00;99651.63;5079380;28;20607;-80
2020/12/31 04:22:41;;;;;;;2.57;0.50;;;;;;;4.87;100.00;99652.81;5078178;28;20180;-81
2020/12/31 04:25:07;;;;;;;4.13;0.87;;;;;;;5.01;100.00;99651.31;5060265;28;20602;-80
2020/12/31 04:27:32;;;;;;;2.67;0.80;;;;;;;5.15;100.00;99657.00;5047706;28;20198;-80
2020/12/31 04:29:58;;;;;;;2.43;0.70;;;;;;;5.08;100.00;99667.50;5012539;28;20192;-81
2020/12/31 04:32:23;;;;;;;2.40;0.60;;;;;;;4.99;100.00;99658.91;5016231;28;20681;-80
2020/12/31 04:34:49;;;;;;;3.97;0.30;;;;;;;5.09;100.00;99658.38;5005220;28;20184;-80
2020/12/31 04:37:14;;;;;;;2.93;0.50;;;;;;;4.95;100.00;99658.03;5060862;28;20223;-81
2020/12/31 04:39:40;;;;;;;2.20;0.60;;;;;;;5.00;100.00;99660.44;5008545;28;20180;-80
2020/12/31 04:42:06;;;;;;;2.70;0.67;;;;;;;4.87;100.00;99666.16;5006238;28;20645;-81
2020/12/31 04:44:31;;;;;;;2.70;0.80;;;;;;;4.87;100.00;99668.84;5007784;28;20238;-80
2020/12/31 04:46:58;;;;;;;1.90;0.40;;;;;;;4.77;100.00;99666.66;4997223;28;20214;-81
2020/12/31 04:49:43;;;;;;;2.50;0.77;;;;;;;4.99;100.00;99666.09;5017721;28;20654;-80
2020/12/31 04:52:10;;;;;;;1.53;0.37;;;;;;;5.00;100.00;99671.09;5068775;28;20452;-81
2020/12/31 04:54:40;;;;;;;2.17;0.77;;;;;;;4.87;100.00;99666.16;5061099;28;20493;-79
2020/12/31 04:57:06;;;;;;;4.60;0.90;;;;;;;4.91;100.00;99673.16;5069818;28;20447;-80
2020/12/31 04:59:32;;;;;;;2.17;0.60;;;;;;;5.03;100.00;99680.31;5061633;28;20440;-79
2020/12/31 05:01:57;;;;;;;2.20;0.60;;;;;;;4.89;100.00;99674.59;5003329;28;20514;-80
2020/12/31 05:04:23;;;;;;;2.30;0.70;;;;;;;5.10;100.00;99678.59;5071184;28;20536;-80
2020/12/31 05:06:52;;;;;;;2.80;1.03;;;;;;;4.97;100.00;99676.34;4997141;28;20226;-80
2020/12/31 05:09:19;;;;;;;2.57;0.67;;;;;;;4.95;100.00;99676.69;5071980;28;20203;-80
2020/12/31 05:11:51;;;;;;;2.77;0.60;;;;;;;4.89;100.00;99677.28;5067457;28;20987;-80
2020/12/31 05:14:29;;;;;;;4.63;1.30;;;;;;;4.96;100.00;99674.78;5073973;28;20500;-80
2020/12/31 05:16:55;;;;;;;2.07;0.53;;;;;;;5.22;100.00;99683.09;5068622;28;20480;-80
2020/12/31 05:19:22;;;;;;;1.53;0.40;;;;;;;5.22;100.00;99673.22;5072149;28;20430;-80
2020/12/31 05:21:48;;;;;;;3.00;0.80;;;;;;;5.13;100.00;99672.56;5067679;28;20432;-80
2020/12/31 05:24:14;;;;;;;1.50;0.33;;;;;;;5.02;100.00;99668.88;5080379;28;20525;-80
2020/12/31 05:26:40;;;;;;;6.53;1.30;;;;;;;4.96;100.00;99670.22;5008678;28;20476;-79
2020/12/31 05:29:06;;;;;;;2.80;0.43;;;;;;;4.85;100.00;99674.50;5075628;28;20204;-79
2020/12/31 05:31:54;;;;;;;2.70;0.67;;;;;;;4.86;100.00;99676.03;5080129;28;20233;-79
2020/12/31 05:34:32;;;;;;;1.47;0.30;;;;;;;4.89;100.00;99679.94;5060493;28;20713;-79
2020/12/31 05:37:15;;;;;;;3.30;0.70;;;;;;;5.23;100.00;99674.75;5005552;28;20467;-79
2020/12/31 05:40:05;;;;;;;2.30;0.67;;;;;;;5.12;100.00;99679.03;5009405;28;20479;-79
2020/12/31 05:42:32;;;;;;;2.73;0.70;;;;;;;4.96;100.00;99675.56;5073711;28;20475;-79
2020/12/31 05:44:58;;;;;;;4.07;1.00;;;;;;;4.88;100.00;99681.81;5013040;28;20440;-78
2020/12/31 05:47:24;;;;;;;2.13;0.50;;;;;;;4.80;100.00;99681.97;5014183;28;20467;-79
2020/12/31 05:49:49;;;;;;;2.83;0.90;;;;;;;4.82;100.00;99675.19;5007962;28;20526;-78
2020/12/31 05:52:35;;;;;;;2.20;0.57;;;;;;;4.65;100.00;99675.47;5059687;28;20209;-79
2020/12/31 05:55:03;;;;;;;2.63;0.70;;;;;;;4.80;100.00;99680.06;5079770;28;20192;-79
2020/12/31 05:57:57;;;;;;;2.60;0.90;;;;;;;4.78;100.00;99676.97;5002927;28;20471;-80
2020/12/31 06:00:28;;;;;;;1.80;0.67;;;;;;;4.83;100.00;99675.97;5075080;28;20555;-78
2020/12/31 06:02:54;;;;;;;2.53;0.60;;;;;;;4.68;100.00;99677.47;5072735;28;20518;-79
2020/12/31 06:05:20;;;;;;;1.77;0.37;;;;;;;4.52;100.00;99685.41;5009211;28;20526;-79
2020/12/31 06:07:48;;;;;;;3.07;0.80;;;;;;;4.65;100.00;99686.13;5081618;28;20501;-80
2020/12/31 06:10:22;;;;;;;3.80;0.60;;;;;;;4.55;100.00;99681.28;5011256;28;20444;-78
2020/12/31 06:12:48;;;;;;;2.90;0.70;;;;;;;4.53;100.00;99681.63;5076240;28;20495;-79
2020/12/31 06:15:28;;;;;;;2.27;0.70;;;;;;;4.64;100.00;99687.25;5020275;28;20431;-78
2020/12/31 06:17:54;;;;;;;3.37;0.70;;;;;;;4.39;100.00;99685.78;5078939;28;20479;-80
2020/12/31 06:20:27;;;;;;;1.73;0.50;;;;;;;4.31;100.00;99694.69;5008834;28;20439;-80
2020/12/31 06:22:58;;;;;;;1.97;0.43;;;;;;;4.25;100.00;99693.38;5013786;28;20878;-79
2020/12/31 06:25:36;;;;;;;3.07;0.70;;;;;;;4.25;100.00;99680.81;5076100;28;20439;-78
2020/12/31 06:28:04;;;;;;;2.13;0.53;;;;;;;4.37;100.00;99685.34;5014634;28;20461;-80
2020/12/31 06:30:31;;;;;;;3.63;1.47;;;;;;;4.29;100.00;99696.91;5016485;28;20434;-79
2020/12/31 06:33:02;;;;;;;2.53;0.63;;;;;;;4.34;100.00;99692.13;5015388;28;20986;-80
2020/12/31 06:35:32;;;;;;;3.20;0.70;;;;;;;4.23;100.00;99687.59;5012160;28;20486;-78
2020/12/31 06:37:58;;;;;;;2.53;0.40;;;;;;;4.32;100.00;99688.22;5014921;28;20890;-80
2020/12/31 06:40:29;;;;;;;1.83;0.47;;;;;;;4.42;100.00;99703.75;5013630;28;20462;-79
2020/12/31 06:43:03;;;;;;;2.00;0.70;;;;;;;4.35;100.00;99698.22;5012009;28;20440;-79
2020/12/31 06:45:32;;;;;;;3.17;0.73;;;;;;;4.29;100.00;99707.56;5080556;28;20525;-79
2020/12/31 06:47:57;;;;;;;2.37;0.37;;;;;;;4.40;100.00;99700.66;5083140;28;20452;-79
2020/12/31 06:50:58;;;;;;;1.77;0.47;;;;;;;4.32;100.00;99705.00;5066083;28;20962;-80
2020/12/31 06:53:30;;;;;;;2.60;0.60;;;;;;;4.32;100.00;99706.88;5095911;28;20189;-80
2020/12/31 06:55:56;;;;;;;1.77;0.67;;;;;;;4.34;100.00;99712.66;5023848;28;20467;-80
2020/12/31 06:58:24;;;;;;;3.50;1.00;;;;;;;4.48;100.00;99703.19;5073007;28;20472;-80
2020/12/31 07:00:51;;;;;;;1.63;0.50;;;;;;;4.52;100.00;99708.63;5001522;28;20475;-80
2020/12/31 07:03:39;;;;;;;1.73;0.47;;;;;;;4.29;100.00;99711.00;5005361;28;20990;-81
2020/12/31 07:06:23;;;;;;;3.17;1.00;;;;;;;4.34;100.00;99707.31;5009322;28;20436;-80
2020/12/31 07:08:56;;;;;;;1.40;0.20;;;;;;;4.25;100.00;99715.47;5008821;28;20572;-81
2020/12/31 07:11:37;;;;;;;1.47;0.37;;;;;;;4.28;100.00;99714.78;5072702;28;20520;-80
2020/12/31 07:14:10;;;;;;;3.30;1.07;;;;;;;4.27;100.00;99712.44;5075575;28;20950;-80
2020/12/31 07:16:53;;;;;;;1.77;0.37;;;;;;;4.46;100.00;99717.97;5073511;28;20478;-80
2020/12/31 07:19:28;;;;;;;2.37;0.50;;;;;;;4.50;100.00;99718.84;5006825;28;20449;-81
2020/12/31 07:21:54;;;;;;;2.10;0.40;;;;;;;4.64;100.00;99708.59;5012836;28;20952;-81
2020/12/31 07:24:25;;;;;;;1.70;0.60;;;;;;;4.62;100.00;99712.69;5016098;28;20485;-81
2020/12/31 07:26:54;;;;;;;1.40;0.30;;;;;;;4.52;100.00;99708.63;5006714;28;20214;-81
2020/12/31 07:29:24;;;;;;;1.73;0.27;;;;;;;4.59;100.00;99722.94;5058511;28;20541;-81
2020/12/31 07:31:50;;;;;;;2.27;0.50;;;;;;;4.50;100.00;99714.28;5077594;28;20472;-81
2020/12/31 07:34:34;;;;;;;1.77;0.30;;;;;;;4.31;100.00;99716.78;5074899;28;20439;-82
2020/12/31 07:37:05;;;;;;;1.90;0.40;;;;;;;4.23;100.00;99720.34;5069351;28;20868;-80
2020/12/31 07:39:32;;;;;;;1.17;0.10;;;;;;;4.26;100.00;99722.31;5033606;28;20439;-81
2020/12/31 07:42:17;;;;;;;1.57;0.30;;;;;;;4.45;100.00;99725.16;5019203;28;20464;-82
2020/12/31 07:44:55;;;;;;;2.23;0.50;;;;;;;4.59;100.00;99725.59;5084679;28;20455;-82
2020/12/31 07:47:22;;;;;;;1.60;0.27;;;;;;;4.73;100.00;99719.88;5079960;28;20542;-82
2020/12/31 07:49:53;;;;;;;1.30;0.30;;;;;;;4.62;100.00;99721.47;5010828;28;20451;-81
2020/12/31 07:52:19;;;;;;;2.20;0.30;;;;;;;4.77;100.00;99719.97;5076901;28;20565;-82
2020/12/31 07:54:46;;;;;;;4.17;0.80;;;;;;;4.88;100.00;99718.41;5070329;28;20926;-81
2020/12/31 07:57:13;;;;;;;1.80;0.40;;;;;;;4.51;100.00;99721.16;5074934;28;20471;-81
2020/12/31 07:59:43;;;;;;;2.10;0.20;;;;;;;4.43;100.00;99722.06;5076274;28;20474;-81
2020/12/31 08:02:10;;;;;;;2.63;1.10;;;;;;;4.40;100.00;99727.28;5010726;28;20535;-81
2020/12/31 08:04:36;;;;;;;2.20;0.60;;;;;;;4.32;100.00;99720.19;5069836;28;20520;-82
2020/12/31 08:07:03;;;;;;;2.97;0.40;;;;;;;4.51;100.00;99728.38;4998245;28;20531;-82
2020/12/31 08:09:28;;;;;;;1.30;0.20;;;;;;;4.68;100.00;99725.47;5088514;28;20527;-82
2020/12/31 08:11:54;;;;;;;2.33;0.77;;;;;;;4.76;100.00;99721.88;5070621;28;20463;-82
2020/12/31 08:14:19;;;;;;;2.20;0.30;;;;;;;4.68;100.00;99728.13;5013198;28;20181;-81
2020/12/31 08:17:01;;;;;;;1.87;0.33;;;;;;;4.61;100.00;99730.56;5077007;28;20216;-81
2020/12/31 08:19:29;;;;;;;1.30;0.17;;;;;;;4.72;100.00;99726.34;5005908;28;20243;-81
2020/12/31 08:22:00;;;;;;;1.80;0.30;;;;;;;4.70;100.00;99719.78;5011786;28;20455;-81
2020/12/31 08:24:28;;;;;;;4.03;0.40;;;;;;;4.69;100.00;99734.22;5012412;28;20446;-81
2020/12/31 08:26:58;;;;;;;2.47;0.67;;;;;;;4.63;100.00;99732.94;5012079;28;20559;-81
2020/12/31 08:29:34;;;;;;;2.53;1.00;;;;;;;4.53;100.00;99732.28;5064131;28;20447;-81
2020/12/31 08:32:04;;;;;;;2.30;0.50;;;;;;;4.67;100.00;99734.56;5080637;28;20459;-81
2020/12/31 08:34:35;;;;;;;1.80;0.53;;;;;;;4.97;100.00;99741.16;5011514;28;20444;-82
2020/12/31 08:37:01;;;;;;;1.30;0.20;;;;;;;4.76;100.00;99740.56;5054610;28;21033;-81
2020/12/31 08:39:28;;;;;;;2.80;0.20;;;;;;;4.76;100.00;99745.88;5076258;28;20432;-81
2020/12/31 08:41:57;;;;;;;1.80;0.40;;;;;;;4.83;100.00;99755.97;5012310;28;20436;-81
2020/12/31 08:44:24;;;;;;;5.37;0.40;;;;;;;4.75;100.00;99749.66;5078134;28;20939;-81
2020/12/31 08:46:50;;;;;;;3.53;0.40;;;;;;;4.93;100.00;99740.28;5014586;28;20459;-81
2020/12/31 08:49:23;;;;;;;1.40;0.20;;;;;;;5.06;100.00;99744.44;5010775;28;20470;-81
2020/12/31 08:51:49;;;;;;;1.80;0.30;;;;;;;4.95;100.00;99746.03;5076618;28;20257;-80
2020/12/31 08:54:15;;;;;;;2.40;0.57;;;;;;;5.07;100.00;99737.97;5063031;28;20439;-80
2020/12/31 08:56:40;;;;;;;2.97;0.67;;;;;;;5.26;100.00;99743.47;5062880;28;20492;-81
2020/12/31 08:59:10;;;;;;;1.57;0.30;;;;;;;5.43;100.00;99747.69;5047014;28;20347;-81
2020/12/31 09:01:36;;;;;;;1.57;0.10;;;;;;;5.26;100.00;99740.00;5022020;28;20543;-81
2020/12/31 09:04:18;;;;;;;1.47;0.30;;;;;;;5.24;100.00;99743.03;5012199;28;20923;-80
2020/12/31 09:06:45;;;;;;;2.40;0.27;;;;;;;5.32;100.00;99746.66;5011804;28;20472;-80
2020/12/31 09:09:17;;;;;;;1.13;0.13;;;;;;;5.19;100.00;99748.59;5015101;28;20444;-80
2020/12/31 09:12:09;;;;;;;1.60;0.30;;;;;;;5.36;100.00;99750.19;5011198;28;20478;-80
2020/12/31 09:14:38;;;;;;;1.30;0.17;;;;;;;5.44;100.00;99746.56;5054167;28;20448;-80
2020/12/31 09:17:23;;;;;;;1.20;0.10;;;;;;;5.16;100.00;99762.63;5007029;28;20513;-82
2020/12/31 09:19:52;;;;;;;1.30;0.20;;;;;;;5.15;100.00;99761.06;5064159;28;20959;-81
2020/12/31 09:22:19;;;;;;;2.20;0.50;;;;;;;5.12;100.00;99758.31;5076249;28;20939;-81
2020/12/31 09:24:45;;;;;;;1.40;0.20;;;;;;;5.25;100.00;99755.22;5073157;28;20500;-81
2020/12/31 09:27:10;;;;;;;1.67;0.30;;;;;;;5.33;100.00;99756.97;5008979;28;20459;-80
2020/12/31 09:29:36;;;;;;;1.40;0.20;;;;;;;5.17;100.00;99756.16;5069141;28;20595;-80
2020/12/31 09:32:01;;;;;;;2.03;0.50;;;;;;;5.19;100.00;99748.59;5006246;28;20741;-81
2020/12/31 09:34:27;;;;;;;3.60;0.60;;;;;;;5.19;100.00;99748.59;5074055;28;20185;-82
2020/12/31 09:37:00;;;;;;;2.10;0.60;;;;;;;5.20;100.00;99746.69;5071020;28;20623;-80
2020/12/31 09:39:26;;;;;;;1.10;0.10;;;;;;;5.13;100.00;99752.63;5036164;28;20181;-81
2020/12/31 09:41:52;;;;;;;1.40;0.20;;;;;;;4.87;100.00;99762.97;5006683;28;20427;-81
2020/12/31 09:44:17;;;;;;;1.97;0.50;;;;;;;4.98;100.00;99756.03;5078301;28;20181;-81
2020/12/31 09:46:43;;;;;;;2.33;0.50;;;;;;;5.12;100.00;99747.63;5082129;28;21024;-80
2020/12/31 09:49:09;;;;;;;2.07;0.33;;;;;;;5.26;100.00;99754.13;5083085;28;20188;-81
2020/12/31 09:51:34;;;;;;;2.70;0.50;;;;;;;5.26;100.00;99753.34;5022101;28;20216;-81
2020/12/31 09:54:00;;;;;;;3.00;0.30;;;;;;;5.34;100.00;99757.75;5054487;28;20185;-81
2020/12/31 09:56:29;;;;;;;3.10;0.57;;;;;;;5.10;100.00;99761.31;5004151;28;20208;-81
2020/12/31 09:58:55;;;;;;;2.27;0.50;;;;;;;5.18;100.00;99751.59;5013913;28;20192;-80
2020/12/31 10:01:22;;;;;;;2.30;0.63;;;;;;;5.00;100.00;99753.00;5013898;28;20803;-81
2020/12/31 10:03:48;;;;;;;1.50;0.30;;;;;;;5.24;100.00;99761.69;5062291;28;20439;-81
2020/12/31 10:06:14;;;;;;;1.80;0.27;;;;;;;5.04;100.00;99767.22;5081045;28;20447;-80
2020/12/31 10:08:43;;;;;;;1.20;0.10;;;;;;;4.95;100.00;99759.38;5012455;28;20455;-81
2020/12/31 10:11:08;;;;;;;1.50;0.30;;;;;;;5.21;100.00;99751.69;5013433;28;20463;-81
2020/12/31 10:13:34;;;;;;;1.53;0.40;;;;;;;5.24;100.00;99759.03;5064595;28;20451;-81
2020/12/31 10:16:01;;;;;;;1.20;0.20;;;;;;;5.22;100.00;99760.47;5065528;28;20201;-82
2020/12/31 10:18:26;;;;;;;1.77;0.27;;;;;;;5.32;100.00;99754.66;5047980;28;20470;-81
2020/12/31 10:20:51;;;;;;;3.17;1.07;;;;;;;5.33;100.00;99748.19;5060480;28;20439;-81
2020/12/31 10:23:17;;;;;;;1.63;0.50;;;;;;;5.12;100.00;99753.75;5026670;28;20217;-81
2020/12/31 10:25:42;;;;;;;1.93;0.40;;;;;;;5.28;100.00;99753.78;5065715;28;20238;-82
2020/12/31 10:28:08;;;;;;;1.70;0.30;;;;;;;5.28;100.00;99754.53;5006584;28;20287;-81
2020/12/31 10:30:33;;;;;;;1.50;0.23;;;;;;;5.26;100.00;99754.13;5010750;28;20173;-81
2020/12/31 10:32:59;;;;;;;2.20;0.43;;;;;;;5.18;100.00;99751.59;5083842;28;20281;-80
2020/12/31 10:35:24;;;;;;;1.20;0.10;;;;;;;4.96;100.00;99758.25;5011292;28;20177;-80
2020/12/31 10:37:50;;;;;;;1.47;0.20;;;;;;;4.96;100.00;99755.59;5083516;28;20209;-80
2020/12/31 10:40:16;;;;;;;1.57;0.20;;;;;;;5.09;100.00;99754.41;5035834;28;20275;-81
2020/12/31 10:42:44;;;;;;;1.30;0.30;;;;;;;5.05;100.00;99760.78;5010503;28;20189;-80
2020/12/31 10:45:09;;;;;;;1.77;0.50;;;;;;;4.84;100.00;99755.63;5039407;28;20555;-80
2020/12/31 10:47:35;;;;;;;1.40;0.20;;;;;;;5.03;100.00;99755.00;5036547;28;20558;-81
2020/12/31 10:50:00;;;;;;;1.50;0.30;;;;;;;5.17;100.00;99745.47;5009552;28;20189;-80
2020/12/31 10:52:26;;;;;;;1.87;0.40;;;;;;;4.98;100.00;99744.56;5009337;28;20212;-81
2020/12/31 10:54:51;;;;;;;2.00;0.23;;;;;;;4.90;100.00;99745.47;5083220;28;20692;-80
2020/12/31 10:57:17;;;;;;;1.50;0.27;;;;;;;4.99;100.00;99746.91;5060091;28;20253;-80
2020/12/31 10:59:42;;;;;;;1.23;0.10;;;;;;;5.02;100.00;99743.56;5012913;28;20189;-80
2020/12/31 11:02:07;;;;;;;2.17;0.40;;;;;;;5.06;100.00;99733.75;5069093;28;20177;-79
2020/12/31 11:04:33;;;;;;;1.70;0.43;;;;;;;5.04;100.00;99736.00;5011136;28;20188;-80
2020/12/31 11:06:58;;;;;;;1.27;0.30;;;;;;;5.15;100.00;99738.97;5021602;28;20210;-80
2020/12/31 11:09:24;;;;;;;1.90;0.40;;;;;;;5.08;100.00;99741.41;5016319;28;20181;-80
2020/12/31 11:11:50;;;;;;;2.03;0.40;;;;;;;4.99;100.00;99730.91;5088019;28;20205;-80
2020/12/31 11:14:15;;;;;;;1.23;0.20;;;;;;;5.27;100.00;99737.00;5077194;28;20222;-80
2020/12/31 11:16:47;;;;;;;2.00;0.30;;;;;;;5.12;100.00;99731.63;5076686;28;20467;-81
2020/12/31 11:19:12;;;;;;;1.83;0.40;;;;;;;5.11;100.00;99733.50;5007070;28;20184;-81
2020/12/31 11:21:38;;;;;;;1.77;0.37;;;;;;;5.07;100.00;99731.88;5009127;28;20443;-80
2020/12/31 11:24:03;;;;;;;1.40;0.20;;;;;;;5.07;100.00;99723.88;5014415;28;20177;-79
2020/12/31 11:26:29;;;;;;;1.90;0.50;;;;;;;5.22;100.00;99729.25;5011259;28;20204;-80
2020/12/31 11:28:54;;;;;;;2.13;0.30;;;;;;;5.21;100.00;99718.88;5010738;28;20209;-80
2020/12/31 11:31:25;;;;;;;1.73;0.33;;;;;;;5.02;100.00;99721.44;5059690;28;20212;-79
2020/12/31 11:33:51;;;;;;;1.73;0.67;;;;;;;4.90;100.00;99719.59;5074142;28;20181;-80
2020/12/31 11:36:16;;;;;;;1.73;0.40;;;;;;;4.91;100.00;99720.38;5008708;28;20507;-81
2020/12/31 11:38:42;;;;;;;1.60;0.10;;;;;;;5.05;100.00;99721.53;5005772;28;20456;-80